Time;durP1;ratioP1;P1;durP2;ratioP2;P2;SDS_P1;SDS_P2;PMS_P1;PMS_P2;Temp;Humidity;BMP_temperature;BMP_pressure;BME280_temperature;BME280_humidity;BME280_pressure;Samples;Min_cycle;Max_cycle;Signal;HPM_P1;HPM_P2
2023/03/03 00:00:11;;;;;;;58.00;12.88;;;;;;;;;;6163309;23;20068;-95
2023/03/03 00:02:37;;;;;;;90.32;12.23;;;;;;;;;;6164970;23;20210;-94
2023/03/03 00:05:04;;;;;;;78.55;13.05;;;;;;;;;;6167761;23;20036;-94
2023/03/03 00:07:30;;;;;;;72.22;11.55;;;;;;;;;;6168554;23;20013;-96
2023/03/03 00:09:56;;;;;;;70.43;12.20;;;;;;;;;;6170482;23;20016;-96
2023/03/03 00:12:27;;;;;;;85.05;12.40;;;;;;;;;;6195223;23;20016;-94
2023/03/03 00:14:54;;;;;;;53.65;10.85;;;;;;;;;;6193419;23;20029;-95
2023/03/03 00:17:20;;;;;;;74.80;10.40;;;;;;;;;;6191106;23;20009;-95
2023/03/03 00:19:47;;;;;;;104.68;13.10;;;;;;;;;;6189072;23;20024;-94
2023/03/03 00:22:15;;;;;;;60.75;10.50;;;;;;;;;;6187004;23;20005;-94
2023/03/03 00:24:41;;;;;;;67.13;10.57;;;;;;;;;;6187499;23;20126;-95
2023/03/03 00:27:29;;;;;;;45.25;10.48;;;;;;;;;;6186453;23;20048;-95
2023/03/03 00:30:02;;;;;;;82.63;10.52;;;;;;;;;;6185817;23;20005;-94
2023/03/03 00:32:51;;;;;;;55.03;9.60;;;;;;;;;;6186677;23;20056;-95
2023/03/03 00:35:29;;;;;;;65.40;9.73;;;;;;;;;;6187417;23;20008;-94
2023/03/03 00:38:15;;;;;;;67.25;11.23;;;;;;;;;;6187272;23;20429;-94
2023/03/03 00:40:41;;;;;;;55.63;10.55;;;;;;;;;;6185573;23;20060;-96
2023/03/03 00:43:20;;;;;;;64.28;10.35;;;;;;;;;;6162180;23;20009;-94
2023/03/03 00:45:51;;;;;;;67.65;10.80;;;;;;;;;;6186570;23;20013;-94
2023/03/03 00:48:26;;;;;;;62.22;9.32;;;;;;;;;;6185819;23;20005;-94
2023/03/03 00:50:59;;;;;;;79.95;9.85;;;;;;;;;;6186052;23;20009;-95
2023/03/03 00:53:27;;;;;;;64.72;10.35;;;;;;;;;;6186676;23;20032;-95
2023/03/03 00:55:56;;;;;;;47.15;8.48;;;;;;;;;;6187551;23;20423;-93
2023/03/03 00:58:23;;;;;;;49.75;9.77;;;;;;;;;;6189791;23;20009;-93
2023/03/03 01:00:50;;;;;;;23.90;8.70;;;;;;;;;;6188479;23;20017;-92
2023/03/03 01:03:22;;;;;;;70.18;10.05;;;;;;;;;;6189684;23;20068;-93
2023/03/03 01:05:49;;;;;;;48.45;8.52;;;;;;;;;;6188568;23;20047;-93
2023/03/03 01:08:15;;;;;;;166.27;13.30;;;;;;;;;;6164225;23;20009;-93
2023/03/03 01:10:43;;;;;;;113.15;10.82;;;;;;;;;;6189783;23;19997;-94
2023/03/03 01:13:10;;;;;;;106.97;10.90;;;;;;;;;;6189189;23;20546;-93
2023/03/03 01:15:36;;;;;;;151.00;12.77;;;;;;;;;;6164115;23;20325;-93
2023/03/03 01:18:02;;;;;;;97.28;10.55;;;;;;;;;;6165530;23;20431;-93
2023/03/03 01:20:28;;;;;;;140.98;11.50;;;;;;;;;;6163962;23;20470;-93
2023/03/03 01:22:54;;;;;;;207.52;11.77;;;;;;;;;;6189062;23;20521;-93
2023/03/03 01:25:20;;;;;;;126.28;10.57;;;;;;;;;;6189210;23;20087;-93
2023/03/03 01:27:46;;;;;;;150.07;12.57;;;;;;;;;;6190202;23;20013;-93
2023/03/03 01:30:13;;;;;;;134.82;11.30;;;;;;;;;;6165698;23;20005;-93
2023/03/03 01:32:39;;;;;;;143.25;12.38;;;;;;;;;;6164927;23;20013;-93
2023/03/03 01:35:05;;;;;;;150.30;13.55;;;;;;;;;;6187859;23;20055;-91
2023/03/03 01:37:31;;;;;;;74.57;10.00;;;;;;;;;;6163353;23;20017;-92
2023/03/03 01:39:57;;;;;;;144.63;12.02;;;;;;;;;;6188899;23;20435;-92
2023/03/03 01:42:27;;;;;;;118.75;11.45;;;;;;;;;;6188777;23;20435;-92
2023/03/03 01:45:13;;;;;;;110.18;9.48;;;;;;;;;;6187390;23;20446;-92
2023/03/03 01:47:41;;;;;;;144.50;9.83;;;;;;;;;;6187506;23;20522;-92
2023/03/03 01:50:11;;;;;;;88.22;8.82;;;;;;;;;;6189244;23;20302;-92
2023/03/03 01:52:42;;;;;;;77.70;7.53;;;;;;;;;;6187034;23;20013;-92
2023/03/03 01:55:13;;;;;;;96.32;8.23;;;;;;;;;;6187584;23;20025;-94
2023/03/03 01:57:42;;;;;;;92.47;7.32;;;;;;;;;;6188484;23;20054;-92
2023/03/03 02:00:10;;;;;;;82.13;7.78;;;;;;;;;;6187278;23;20005;-93
2023/03/03 02:02:36;;;;;;;71.88;7.57;;;;;;;;;;6186953;23;20056;-92
2023/03/03 02:05:02;;;;;;;79.07;8.73;;;;;;;;;;6187341;23;20019;-92
2023/03/03 02:07:30;;;;;;;126.07;8.90;;;;;;;;;;6187905;23;20009;-94
2023/03/03 02:09:59;;;;;;;76.70;8.48;;;;;;;;;;6188649;23;20006;-90
2023/03/03 02:12:32;;;;;;;103.90;8.77;;;;;;;;;;6188974;23;20008;-93
2023/03/03 02:14:59;;;;;;;79.00;7.53;;;;;;;;;;6191650;23;20024;-94
2023/03/03 02:17:25;;;;;;;66.13;7.40;;;;;;;;;;6166476;23;20013;-94
2023/03/03 02:19:54;;;;;;;67.13;7.60;;;;;;;;;;6167564;23;20009;-96
2023/03/03 02:22:23;;;;;;;49.17;7.18;;;;;;;;;;6193702;23;20020;-95
2023/03/03 02:25:05;;;;;;;51.95;8.02;;;;;;;;;;6197544;23;20009;-93
2023/03/03 02:27:38;;;;;;;35.88;6.75;;;;;;;;;;6205005;23;20196;-93
2023/03/03 02:30:15;;;;;;;38.85;6.95;;;;;;;;;;6181762;23;20009;-92
2023/03/03 02:32:41;;;;;;;32.85;6.63;;;;;;;;;;6204753;23;20001;-93
2023/03/03 02:35:40;;;;;;;22.77;6.72;;;;;;;;;;6205902;23;20012;-93
2023/03/03 02:38:18;;;;;;;58.75;7.47;;;;;;;;;;6143531;23;20020;-93
2023/03/03 02:41:03;;;;;;;52.90;8.48;;;;;;;;;;6191407;23;20096;-94
2023/03/03 02:43:53;;;;;;;18.57;6.40;;;;;;;;;;6190070;23;20590;-94
2023/03/03 02:46:19;;;;;;;14.27;5.95;;;;;;;;;;6177142;23;20232;-95
2023/03/03 02:48:45;;;;;;;27.20;6.80;;;;;;;;;;6164298;23;20035;-94
2023/03/03 02:51:18;;;;;;;19.10;7.10;;;;;;;;;;6187386;23;20040;-93
2023/03/03 02:53:44;;;;;;;14.30;6.70;;;;;;;;;;6163626;23;20009;-94
2023/03/03 02:56:10;;;;;;;17.08;6.57;;;;;;;;;;6163245;23;20084;-94
2023/03/03 02:58:37;;;;;;;17.23;6.80;;;;;;;;;;6163253;23;20427;-95
2023/03/03 03:01:03;;;;;;;12.93;6.13;;;;;;;;;;6187601;23;20064;-94
2023/03/03 03:03:29;;;;;;;11.77;5.88;;;;;;;;;;6186633;23;20065;-93
2023/03/03 03:05:56;;;;;;;13.55;5.90;;;;;;;;;;6161395;23;20099;-94
2023/03/03 03:08:22;;;;;;;14.48;6.40;;;;;;;;;;6163147;23;20013;-93
2023/03/03 03:10:48;;;;;;;12.85;6.45;;;;;;;;;;6187120;23;20037;-93
2023/03/03 03:13:14;;;;;;;21.88;5.93;;;;;;;;;;6161922;23;20633;-94
2023/03/03 03:15:40;;;;;;;14.05;6.18;;;;;;;;;;6164012;23;20006;-94
2023/03/03 03:18:06;;;;;;;16.30;6.88;;;;;;;;;;6161452;23;20016;-92
2023/03/03 03:20:36;;;;;;;16.27;6.53;;;;;;;;;;6191099;23;20020;-94
2023/03/03 03:23:02;;;;;;;14.00;6.32;;;;;;;;;;6189084;23;20013;-94
2023/03/03 03:25:28;;;;;;;16.45;6.88;;;;;;;;;;6188989;23;20467;-95
2023/03/03 03:27:54;;;;;;;13.63;5.60;;;;;;;;;;6165240;23;20016;-93
2023/03/03 03:30:21;;;;;;;16.17;6.78;;;;;;;;;;6166224;23;20005;-94
2023/03/03 03:32:47;;;;;;;21.20;7.70;;;;;;;;;;6170638;23;20001;-93
2023/03/03 03:35:14;;;;;;;13.60;6.25;;;;;;;;;;6197962;23;20482;-94
2023/03/03 03:37:40;;;;;;;16.40;8.32;;;;;;;;;;6172436;23;20013;-94
2023/03/03 03:40:06;;;;;;;20.00;7.30;;;;;;;;;;6192591;23;20064;-94
2023/03/03 03:42:32;;;;;;;16.08;7.13;;;;;;;;;;6168416;23;20013;-94
2023/03/03 03:44:58;;;;;;;15.77;6.63;;;;;;;;;;6163656;23;20100;-96
2023/03/03 03:47:25;;;;;;;17.90;7.80;;;;;;;;;;6161836;23;20040;-93
2023/03/03 03:49:51;;;;;;;15.40;6.65;;;;;;;;;;6164090;22;20009;-94
2023/03/03 03:52:17;;;;;;;18.13;7.38;;;;;;;;;;6156847;23;20013;-93
2023/03/03 03:54:43;;;;;;;17.17;5.95;;;;;;;;;;6158042;23;20008;-93
2023/03/03 03:57:09;;;;;;;15.48;6.53;;;;;;;;;;6155502;23;20091;-93
2023/03/03 03:59:35;;;;;;;17.13;6.43;;;;;;;;;;6156748;23;20390;-93
2023/03/03 04:02:02;;;;;;;13.07;6.15;;;;;;;;;;6157604;23;20043;-94
2023/03/03 04:04:28;;;;;;;15.15;6.55;;;;;;;;;;6156839;23;20032;-94
2023/03/03 04:06:54;;;;;;;16.38;6.70;;;;;;;;;;6155078;23;20037;-94
2023/03/03 04:09:21;;;;;;;16.63;6.38;;;;;;;;;;6155892;23;20033;-94
2023/03/03 04:11:47;;;;;;;19.13;5.72;;;;;;;;;;6182472;23;20039;-94
2023/03/03 04:14:13;;;;;;;16.40;6.82;;;;;;;;;;6158871;23;20005;-94
2023/03/03 04:16:39;;;;;;;12.52;6.03;;;;;;;;;;6158917;23;20013;-94
2023/03/03 04:19:05;;;;;;;15.65;5.80;;;;;;;;;;6157792;23;20067;-94
2023/03/03 04:21:31;;;;;;;11.57;5.65;;;;;;;;;;6158079;23;20032;-94
2023/03/03 04:23:57;;;;;;;27.38;5.97;;;;;;;;;;6184243;23;20377;-93
2023/03/03 04:26:26;;;;;;;16.42;6.65;;;;;;;;;;6159462;23;20016;-92
2023/03/03 04:28:52;;;;;;;16.33;6.90;;;;;;;;;;6160943;23;20088;-93
2023/03/03 04:31:19;;;;;;;18.10;6.47;;;;;;;;;;6160435;23;20013;-94
2023/03/03 04:33:45;;;;;;;15.70;5.75;;;;;;;;;;6184184;23;20093;-93
2023/03/03 04:36:11;;;;;;;12.85;6.03;;;;;;;;;;6159959;23;20009;-93
2023/03/03 04:38:38;;;;;;;12.25;5.40;;;;;;;;;;6158743;23;20009;-94
2023/03/03 04:41:04;;;;;;;14.23;6.07;;;;;;;;;;6184843;23;20020;-93
2023/03/03 04:43:30;;;;;;;19.85;6.15;;;;;;;;;;6159085;23;20010;-94
2023/03/03 04:45:56;;;;;;;15.45;6.65;;;;;;;;;;6184218;23;19997;-93
2023/03/03 04:48:22;;;;;;;17.60;6.28;;;;;;;;;;6182956;23;20051;-94
2023/03/03 04:50:48;;;;;;;14.43;6.03;;;;;;;;;;6183883;23;20353;-94
2023/03/03 04:53:14;;;;;;;15.85;7.03;;;;;;;;;;6159742;23;20052;-94
2023/03/03 04:55:41;;;;;;;14.82;5.75;;;;;;;;;;6181982;23;20058;-94
2023/03/03 04:58:09;;;;;;;15.10;5.40;;;;;;;;;;6183436;23;20502;-93
2023/03/03 05:00:35;;;;;;;14.10;5.65;;;;;;;;;;6158417;23;20206;-93
2023/03/03 05:03:01;;;;;;;12.23;5.82;;;;;;;;;;6158201;23;20264;-93
2023/03/03 05:05:27;;;;;;;14.55;6.60;;;;;;;;;;6182906;23;20009;-93
2023/03/03 05:07:54;;;;;;;15.77;5.82;;;;;;;;;;6183298;23;20071;-94
2023/03/03 05:10:20;;;;;;;17.33;6.55;;;;;;;;;;6182217;23;20001;-93
2023/03/03 05:12:46;;;;;;;13.43;5.75;;;;;;;;;;6156815;23;20009;-94
2023/03/03 05:15:12;;;;;;;15.48;5.35;;;;;;;;;;6158419;23;20010;-94
2023/03/03 05:17:39;;;;;;;14.85;6.25;;;;;;;;;;6182724;23;20625;-94
2023/03/03 05:20:07;;;;;;;18.80;6.68;;;;;;;;;;6157266;23;20036;-93
2023/03/03 05:22:34;;;;;;;14.13;5.75;;;;;;;;;;6159626;23;20075;-93
2023/03/03 05:25:00;;;;;;;16.48;6.90;;;;;;;;;;6184284;23;20020;-94
2023/03/03 05:27:26;;;;;;;12.75;5.45;;;;;;;;;;6184132;23;20013;-93
2023/03/03 05:29:53;;;;;;;13.07;6.15;;;;;;;;;;6160499;23;20025;-92
2023/03/03 05:32:20;;;;;;;16.23;6.55;;;;;;;;;;6160231;23;20040;-92
2023/03/03 05:34:46;;;;;;;12.73;6.03;;;;;;;;;;6160406;23;20009;-92
2023/03/03 05:37:12;;;;;;;15.63;5.93;;;;;;;;;;6159561;23;20370;-93
2023/03/03 05:39:38;;;;;;;16.38;6.20;;;;;;;;;;6158173;23;20020;-93
2023/03/03 05:42:04;;;;;;;16.65;6.40;;;;;;;;;;6186677;23;20039;-93
2023/03/03 05:44:31;;;;;;;10.85;5.35;;;;;;;;;;6159565;23;20047;-93
2023/03/03 05:46:57;;;;;;;11.40;5.97;;;;;;;;;;6161377;23;20016;-93
2023/03/03 05:49:24;;;;;;;14.65;5.82;;;;;;;;;;6185310;23;20016;-93
2023/03/03 05:51:51;;;;;;;22.30;6.40;;;;;;;;;;6162556;23;20336;-93
2023/03/03 05:54:17;;;;;;;28.65;8.10;;;;;;;;;;6186621;23;20088;-94
2023/03/03 05:56:43;;;;;;;25.40;7.75;;;;;;;;;;6162439;23;20005;-93
2023/03/03 05:59:09;;;;;;;28.83;8.32;;;;;;;;;;6163596;23;20037;-93
2023/03/03 06:01:35;;;;;;;26.98;9.02;;;;;;;;;;6189435;23;20031;-94
2023/03/03 06:04:02;;;;;;;28.80;8.52;;;;;;;;;;6166686;23;20005;-95
2023/03/03 06:06:28;;;;;;;26.92;9.40;;;;;;;;;;6194881;23;20032;-93
2023/03/03 06:08:54;;;;;;;23.20;8.05;;;;;;;;;;6180766;23;20136;-93
2023/03/03 06:11:21;;;;;;;34.25;9.23;;;;;;;;;;6206042;23;20005;-92
2023/03/03 06:13:47;;;;;;;32.60;8.60;;;;;;;;;;6180124;23;20009;-93
2023/03/03 06:16:14;;;;;;;26.73;8.10;;;;;;;;;;6181745;23;20081;-94
2023/03/03 06:18:40;;;;;;;21.55;8.25;;;;;;;;;;6173495;23;20012;-94
2023/03/03 06:21:06;;;;;;;23.75;8.23;;;;;;;;;;6167579;23;20019;-94
2023/03/03 06:23:32;;;;;;;24.25;8.90;;;;;;;;;;6190747;23;19997;-93
2023/03/03 06:25:58;;;;;;;26.25;7.68;;;;;;;;;;6163551;23;20013;-94
2023/03/03 06:28:25;;;;;;;25.35;7.35;;;;;;;;;;6188955;23;20011;-93
2023/03/03 06:30:54;;;;;;;25.08;8.20;;;;;;;;;;6161637;23;20033;-94
2023/03/03 06:33:20;;;;;;;24.75;8.75;;;;;;;;;;6188193;23;20104;-94
2023/03/03 06:35:53;;;;;;;16.60;7.15;;;;;;;;;;6163339;23;20013;-94
2023/03/03 06:38:20;;;;;;;22.23;7.82;;;;;;;;;;6187344;23;20036;-95
2023/03/03 06:40:47;;;;;;;19.90;7.53;;;;;;;;;;6185317;23;20009;-94
2023/03/03 06:43:13;;;;;;;27.60;7.75;;;;;;;;;;6186884;23;20127;-94
2023/03/03 06:45:39;;;;;;;17.83;6.93;;;;;;;;;;6163345;23;20371;-94
2023/03/03 06:48:05;;;;;;;28.27;7.55;;;;;;;;;;6164087;23;20009;-93
2023/03/03 06:50:32;;;;;;;25.77;7.65;;;;;;;;;;6164196;23;20087;-94
2023/03/03 06:53:11;;;;;;;23.20;8.02;;;;;;;;;;6169943;23;20074;-93
2023/03/03 06:55:37;;;;;;;18.73;6.72;;;;;;;;;;6195550;23;20435;-94
2023/03/03 06:58:12;;;;;;;27.30;7.40;;;;;;;;;;6190842;23;20000;-94
2023/03/03 07:00:40;;;;;;;24.67;8.70;;;;;;;;;;6190509;23;20015;-94
2023/03/03 07:03:17;;;;;;;21.90;8.43;;;;;;;;;;6186111;23;20019;-95
2023/03/03 07:05:46;;;;;;;20.98;7.40;;;;;;;;;;6185676;23;20112;-93
2023/03/03 07:08:17;;;;;;;19.60;8.63;;;;;;;;;;6183146;23;20015;-94
2023/03/03 07:10:43;;;;;;;22.02;8.52;;;;;;;;;;6181009;23;20386;-93
2023/03/03 07:13:17;;;;;;;19.30;7.38;;;;;;;;;;6156180;23;20009;-93
2023/03/03 07:15:43;;;;;;;15.20;6.53;;;;;;;;;;6181055;23;20009;-93
2023/03/03 07:18:25;;;;;;;19.58;6.35;;;;;;;;;;6179791;23;20016;-94
2023/03/03 07:20:51;;;;;;;17.92;6.57;;;;;;;;;;6180072;23;20350;-93
2023/03/03 07:23:25;;;;;;;14.05;6.25;;;;;;;;;;6156441;23;20013;-94
2023/03/03 07:25:54;;;;;;;13.48;5.50;;;;;;;;;;6180425;23;20439;-93
2023/03/03 07:28:20;;;;;;;19.77;7.85;;;;;;;;;;6179493;23;20009;-93
2023/03/03 07:30:46;;;;;;;17.00;6.28;;;;;;;;;;6178965;23;20001;-93
2023/03/03 07:33:24;;;;;;;13.15;6.10;;;;;;;;;;6155749;23;20009;-93
2023/03/03 07:35:59;;;;;;;19.38;8.38;;;;;;;;;;6180172;23;20013;-94
2023/03/03 07:38:29;;;;;;;15.65;6.78;;;;;;;;;;6179770;23;20009;-93
2023/03/03 07:40:56;;;;;;;18.73;6.88;;;;;;;;;;6180444;23;20013;-94
2023/03/03 07:43:28;;;;;;;18.23;7.50;;;;;;;;;;6179760;23;20343;-94
2023/03/03 07:45:57;;;;;;;20.75;7.85;;;;;;;;;;6179667;23;20382;-94
2023/03/03 07:48:33;;;;;;;20.65;7.68;;;;;;;;;;6179811;23;20065;-94
2023/03/03 07:51:09;;;;;;;21.55;9.02;;;;;;;;;;6178862;23;20016;-94
2023/03/03 07:53:36;;;;;;;21.67;9.27;;;;;;;;;;6179133;23;20009;-93
2023/03/03 07:56:03;;;;;;;20.20;6.72;;;;;;;;;;6179263;23;20209;-93
2023/03/03 07:58:39;;;;;;;15.18;7.07;;;;;;;;;;6179581;23;20009;-95
2023/03/03 08:01:24;;;;;;;17.95;7.53;;;;;;;;;;6178794;23;20605;-93
2023/03/03 08:03:50;;;;;;;18.75;6.57;;;;;;;;;;6179628;23;20371;-92
2023/03/03 08:06:37;;;;;;;13.88;6.65;;;;;;;;;;6179459;23;20328;-92
2023/03/03 08:09:09;;;;;;;14.18;5.88;;;;;;;;;;6178028;23;20013;-93
2023/03/03 08:12:02;;;;;;;17.60;6.93;;;;;;;;;;6180056;23;20008;-93
2023/03/03 08:14:33;;;;;;;12.90;6.78;;;;;;;;;;6146988;23;20016;-94
2023/03/03 08:17:00;;;;;;;20.65;7.13;;;;;;;;;;6182160;23;20399;-94
2023/03/03 08:19:29;;;;;;;11.00;6.68;;;;;;;;;;6181979;23;20009;-94
2023/03/03 08:22:00;;;;;;;19.85;7.78;;;;;;;;;;6182416;23;20040;-94
2023/03/03 08:24:26;;;;;;;12.43;6.30;;;;;;;;;;6182822;23;20009;-94
2023/03/03 08:26:52;;;;;;;13.63;6.60;;;;;;;;;;6158435;23;20009;-94
2023/03/03 08:29:19;;;;;;;12.73;5.35;;;;;;;;;;6157615;23;20391;-92
2023/03/03 08:31:51;;;;;;;15.77;5.70;;;;;;;;;;6158396;23;20410;-93
2023/03/03 08:34:17;;;;;;;11.95;5.38;;;;;;;;;;6158334;23;20332;-94
2023/03/03 08:36:46;;;;;;;9.77;4.72;;;;;;;;;;6157980;23;20020;-94
2023/03/03 08:39:12;;;;;;;21.52;5.20;;;;;;;;;;6158164;23;20036;-93
2023/03/03 08:41:42;;;;;;;12.90;5.05;;;;;;;;;;6182426;23;20013;-94
2023/03/03 08:44:09;;;;;;;11.38;4.90;;;;;;;;;;6182800;23;20012;-93
2023/03/03 08:46:35;;;;;;;13.40;4.88;;;;;;;;;;6157715;23;20040;-93
2023/03/03 08:49:02;;;;;;;21.85;5.03;;;;;;;;;;6159209;23;20017;-94
2023/03/03 08:51:35;;;;;;;23.15;4.55;;;;;;;;;;6185713;22;20001;-93
2023/03/03 08:54:08;;;;;;;18.83;4.60;;;;;;;;;;6185273;23;20013;-94
2023/03/03 08:56:34;;;;;;;13.68;5.50;;;;;;;;;;6186094;23;20005;-94
2023/03/03 08:59:00;;;;;;;16.40;5.07;;;;;;;;;;6160149;23;20376;-94
2023/03/03 09:01:27;;;;;;;17.55;4.20;;;;;;;;;;6159571;23;20021;-94
2023/03/03 09:03:53;;;;;;;13.65;4.85;;;;;;;;;;6184162;23;20009;-94
2023/03/03 09:06:19;;;;;;;14.85;4.70;;;;;;;;;;6184280;23;20491;-93
2023/03/03 09:08:45;;;;;;;16.65;4.63;;;;;;;;;;6159322;23;20062;-93
2023/03/03 09:11:13;;;;;;;8.55;4.28;;;;;;;;;;6184435;23;20005;-93
2023/03/03 09:13:39;;;;;;;14.77;4.72;;;;;;;;;;6158967;23;20429;-93
2023/03/03 09:16:15;;;;;;;10.65;4.25;;;;;;;;;;6183687;23;20005;-94
2023/03/03 09:18:42;;;;;;;12.88;4.63;;;;;;;;;;6185224;23;20005;-94
2023/03/03 09:21:25;;;;;;;13.20;4.13;;;;;;;;;;6185098;23;20099;-93
2023/03/03 09:24:01;;;;;;;19.67;6.80;;;;;;;;;;6185232;23;20012;-94
2023/03/03 09:26:39;;;;;;;19.52;6.88;;;;;;;;;;6184948;23;20502;-94
2023/03/03 09:29:14;;;;;;;16.45;5.88;;;;;;;;;;6184469;23;20343;-94
2023/03/03 09:31:58;;;;;;;19.60;7.13;;;;;;;;;;6186710;23;20005;-94
2023/03/03 09:34:43;;;;;;;17.38;5.97;;;;;;;;;;6186350;23;20005;-94
2023/03/03 09:37:31;;;;;;;15.83;5.37;;;;;;;;;;6189209;23;20024;-96
2023/03/03 09:39:57;;;;;;;21.33;6.30;;;;;;;;;;6188650;23;20020;-94
2023/03/03 09:42:41;;;;;;;14.45;5.78;;;;;;;;;;6197263;23;20092;-92
2023/03/03 09:45:16;;;;;;;10.43;5.90;;;;;;;;;;6202447;23;20063;-94
2023/03/03 09:48:01;;;;;;;16.67;6.35;;;;;;;;;;6199264;23;20617;-93
2023/03/03 09:50:51;;;;;;;14.88;5.63;;;;;;;;;;6190691;23;20005;-94
2023/03/03 09:53:18;;;;;;;18.40;6.25;;;;;;;;;;6194833;23;20013;-92
2023/03/03 09:56:03;;;;;;;20.80;5.68;;;;;;;;;;6195543;23;20005;-94
2023/03/03 09:58:50;;;;;;;13.15;5.35;;;;;;;;;;6195432;23;20015;-94
2023/03/03 10:01:34;;;;;;;15.07;5.53;;;;;;;;;;6187742;23;20072;-94
2023/03/03 10:04:04;;;;;;;17.58;5.38;;;;;;;;;;6185151;23;20455;-93
2023/03/03 10:06:53;;;;;;;9.90;4.90;;;;;;;;;;6182780;23;20032;-93
2023/03/03 10:09:39;;;;;;;8.52;3.70;;;;;;;;;;6185694;23;20081;-94
2023/03/03 10:12:21;;;;;;;12.20;3.63;;;;;;;;;;6182692;23;20053;-93
2023/03/03 10:15:06;;;;;;;8.10;3.35;;;;;;;;;;6183446;23;20005;-93
2023/03/03 10:17:51;;;;;;;10.38;3.20;;;;;;;;;;6182696;23;20001;-94
2023/03/03 10:20:23;;;;;;;8.13;3.47;;;;;;;;;;6183887;23;20015;-94
2023/03/03 10:23:10;;;;;;;11.73;3.50;;;;;;;;;;6183405;23;20039;-94
2023/03/03 10:25:41;;;;;;;11.73;3.08;;;;;;;;;;6181435;23;20064;-95
2023/03/03 10:28:29;;;;;;;6.25;3.17;;;;;;;;;;6181886;23;20027;-93
2023/03/03 10:30:58;;;;;;;12.27;3.38;;;;;;;;;;6182466;23;20012;-94
2023/03/03 10:33:30;;;;;;;5.15;2.30;;;;;;;;;;6182173;23;20423;-94
2023/03/03 10:36:20;;;;;;;10.43;2.40;;;;;;;;;;6182144;23;20001;-94
2023/03/03 10:38:54;;;;;;;5.72;2.30;;;;;;;;;;6183023;23;20038;-94
2023/03/03 10:41:29;;;;;;;5.45;2.15;;;;;;;;;;6182932;23;20048;-94
2023/03/03 10:44:13;;;;;;;4.95;1.85;;;;;;;;;;6183481;23;20095;-94
2023/03/03 10:46:40;;;;;;;8.48;1.88;;;;;;;;;;6183208;23;20271;-95
2023/03/03 10:49:27;;;;;;;8.82;2.00;;;;;;;;;;6183136;23;20470;-94
2023/03/03 10:51:53;;;;;;;6.25;1.63;;;;;;;;;;6182997;23;20343;-94
2023/03/03 10:54:42;;;;;;;9.13;1.42;;;;;;;;;;6182384;23;20021;-94
2023/03/03 10:57:11;;;;;;;5.30;1.33;;;;;;;;;;6183357;23;20001;-94
2023/03/03 10:59:44;;;;;;;5.60;1.15;;;;;;;;;;6182424;23;20343;-95
2023/03/03 11:02:13;;;;;;;7.32;1.08;;;;;;;;;;6182348;23;20435;-94
2023/03/03 11:04:51;;;;;;;12.73;1.35;;;;;;;;;;6181567;23;20618;-94
2023/03/03 11:07:33;;;;;;;5.47;1.13;;;;;;;;;;6181275;23;20034;-94
2023/03/03 11:10:25;;;;;;;5.40;1.15;;;;;;;;;;6181770;23;20080;-95
2023/03/03 11:13:09;;;;;;;8.23;1.42;;;;;;;;;;6181871;23;20032;-95
2023/03/03 11:15:36;;;;;;;4.93;0.95;;;;;;;;;;6183373;23;20009;-94
2023/03/03 11:18:11;;;;;;;5.07;1.25;;;;;;;;;;6181481;23;20443;-95
2023/03/03 11:20:52;;;;;;;5.15;1.00;;;;;;;;;;6182296;23;20009;-95
2023/03/03 11:23:37;;;;;;;6.50;1.17;;;;;;;;;;6181456;23;20431;-94
2023/03/03 11:26:15;;;;;;;3.30;1.02;;;;;;;;;;6180802;23;20017;-95
2023/03/03 11:29:07;;;;;;;3.60;0.90;;;;;;;;;;6181799;23;20442;-94
2023/03/03 11:31:41;;;;;;;8.07;1.15;;;;;;;;;;6178519;23;20008;-95
2023/03/03 11:34:07;;;;;;;1.73;0.70;;;;;;;;;;6181816;23;20446;-94
2023/03/03 11:36:38;;;;;;;2.60;0.85;;;;;;;;;;6181469;23;20005;-94
2023/03/03 11:39:08;;;;;;;5.03;2.35;;;;;;;;;;6180397;23;20013;-95
2023/03/03 11:41:42;;;;;;;8.43;1.02;;;;;;;;;;6181571;23;20009;-95
2023/03/03 11:44:11;;;;;;;2.22;1.02;;;;;;;;;;6181601;23;20023;-95
2023/03/03 11:46:42;;;;;;;9.10;0.70;;;;;;;;;;6182153;23;20040;-93
2023/03/03 11:49:11;;;;;;;3.55;1.35;;;;;;;;;;6182345;23;20012;-95
2023/03/03 11:51:49;;;;;;;4.28;1.50;;;;;;;;;;6182012;23;20032;-95
2023/03/03 11:54:36;;;;;;;5.72;1.40;;;;;;;;;;6180869;23;20075;-96
2023/03/03 11:57:29;;;;;;;2.58;1.20;;;;;;;;;;6181430;23;20017;-95
2023/03/03 12:00:07;;;;;;;3.45;1.02;;;;;;;;;;6182124;23;20005;-95
2023/03/03 12:02:45;;;;;;;3.33;0.70;;;;;;;;;;6182121;23;20005;-95
2023/03/03 12:05:27;;;;;;;3.13;1.00;;;;;;;;;;6181419;23;20012;-96
2023/03/03 12:08:01;;;;;;;3.67;0.90;;;;;;;;;;6181106;23;20374;-94
2023/03/03 12:10:30;;;;;;;5.95;1.33;;;;;;;;;;6181401;23;20009;-94
2023/03/03 12:13:15;;;;;;;10.75;1.63;;;;;;;;;;6181242;23;20001;-94
2023/03/03 12:15:51;;;;;;;12.27;1.75;;;;;;;;;;6182607;23;20001;-95
2023/03/03 12:18:44;;;;;;;8.75;1.30;;;;;;;;;;6181597;23;20009;-95
2023/03/03 12:21:17;;;;;;;8.32;1.25;;;;;;;;;;6181222;23;20431;-95
2023/03/03 12:24:01;;;;;;;3.75;1.20;;;;;;;;;;6182418;23;20009;-95
2023/03/03 12:26:33;;;;;;;8.05;1.13;;;;;;;;;;6181766;23;20070;-95
2023/03/03 12:29:13;;;;;;;3.20;0.93;;;;;;;;;;6184600;23;20009;-95
2023/03/03 12:31:39;;;;;;;5.63;1.40;;;;;;;;;;6183100;23;20019;-94
2023/03/03 12:34:19;;;;;;;8.77;1.55;;;;;;;;;;6184316;23;20411;-95
2023/03/03 12:37:04;;;;;;;8.77;1.55;;;;;;;;;;6184314;23;20037;-94
2023/03/03 12:39:36;;;;;;;6.88;1.55;;;;;;;;;;6182913;23;20034;-95
2023/03/03 12:42:14;;;;;;;3.95;1.73;;;;;;;;;;6184136;23;20009;-95
2023/03/03 12:44:47;;;;;;;6.03;1.70;;;;;;;;;;6182767;23;20024;-95
2023/03/03 12:47:27;;;;;;;7.75;1.77;;;;;;;;;;6185041;23;20420;-95
2023/03/03 12:50:06;;;;;;;6.93;1.52;;;;;;;;;;6183429;23;20005;-95
2023/03/03 12:52:41;;;;;;;13.20;2.30;;;;;;;;;;6182934;23;20001;-95
2023/03/03 12:55:15;;;;;;;14.63;4.70;;;;;;;;;;6184190;23;20017;-95
2023/03/03 12:57:44;;;;;;;5.75;1.52;;;;;;;;;;6185445;23;20005;-95
2023/03/03 13:00:10;;;;;;;8.70;2.17;;;;;;;;;;6185962;23;20067;-95
2023/03/03 13:02:39;;;;;;;16.75;3.00;;;;;;;;;;6185125;23;20427;-95
2023/03/03 13:05:09;;;;;;;14.80;2.95;;;;;;;;;;6186960;23;20005;-94
2023/03/03 13:07:45;;;;;;;12.80;2.50;;;;;;;;;;6187199;23;20436;-95
2023/03/03 13:10:23;;;;;;;15.88;3.85;;;;;;;;;;6186314;23;20416;-95
2023/03/03 13:13:03;;;;;;;11.55;3.47;;;;;;;;;;6188569;23;20447;-94
2023/03/03 13:15:31;;;;;;;14.73;2.67;;;;;;;;;;6189560;23;20063;-95
2023/03/03 13:18:06;;;;;;;16.38;2.90;;;;;;;;;;6188145;23;20428;-94
2023/03/03 13:20:49;;;;;;;8.00;2.17;;;;;;;;;;6188963;23;20009;-94
2023/03/03 13:23:37;;;;;;;19.33;3.58;;;;;;;;;;6190474;23;20040;-94
2023/03/03 13:26:23;;;;;;;19.35;2.80;;;;;;;;;;6192241;23;20020;-96
2023/03/03 13:28:55;;;;;;;23.63;3.42;;;;;;;;;;6180615;23;20005;-93
2023/03/03 13:31:22;;;;;;;16.33;2.88;;;;;;;;;;6193292;23;20032;-93
2023/03/03 13:33:56;;;;;;;20.92;3.03;;;;;;;;;;6197964;23;20012;-93
2023/03/03 13:36:30;;;;;;;14.80;3.15;;;;;;;;;;6197175;23;20005;-93
2023/03/03 13:39:10;;;;;;;9.68;2.97;;;;;;;;;;6196143;23;20005;-95
2023/03/03 13:41:49;;;;;;;15.75;2.50;;;;;;;;;;6197247;23;20013;-94
2023/03/03 13:44:24;;;;;;;5.53;1.98;;;;;;;;;;6190672;23;20011;-95
2023/03/03 13:47:03;;;;;;;22.40;3.27;;;;;;;;;;6187860;23;20020;-94
2023/03/03 13:49:33;;;;;;;21.98;4.60;;;;;;;;;;6184858;23;20250;-95
2023/03/03 13:52:07;;;;;;;21.90;4.13;;;;;;;;;;6186007;23;20005;-91
2023/03/03 13:54:49;;;;;;;25.00;3.55;;;;;;;;;;6183986;23;20048;-94
2023/03/03 13:57:33;;;;;;;21.55;3.13;;;;;;;;;;6184224;23;20009;-93
2023/03/03 14:00:06;;;;;;;8.52;1.63;;;;;;;;;;6185036;23;20032;-94
2023/03/03 14:02:52;;;;;;;14.45;3.35;;;;;;;;;;6184145;23;20029;-94
2023/03/03 14:05:18;;;;;;;;;;;;;;;;;;6184783;23;20096;-95
2023/03/03 14:07:52;;;;;;;16.30;3.13;;;;;;;;;;6182956;23;20338;-95
2023/03/03 14:10:37;;;;;;;21.17;3.15;;;;;;;;;;6156927;23;20044;-94
2023/03/03 14:13:04;;;;;;;16.33;3.97;;;;;;;;;;6181697;23;20461;-94
2023/03/03 14:15:49;;;;;;;14.15;2.53;;;;;;;;;;6181756;23;20009;-94
2023/03/03 14:18:18;;;;;;;16.20;2.90;;;;;;;;;;6181505;23;20013;-93
2023/03/03 14:20:49;;;;;;;30.73;3.30;;;;;;;;;;6182610;23;20005;-94
2023/03/03 14:23:21;;;;;;;14.63;2.72;;;;;;;;;;6181665;23;20067;-95
2023/03/03 14:25:56;;;;;;;21.80;2.63;;;;;;;;;;6182434;23;20374;-94
2023/03/03 14:28:23;;;;;;;27.67;3.00;;;;;;;;;;6181234;23;20016;-94
2023/03/03 14:30:52;;;;;;;16.85;3.35;;;;;;;;;;6157327;23;20005;-94
2023/03/03 14:33:20;;;;;;;21.38;2.88;;;;;;;;;;6181198;23;20005;-95
2023/03/03 14:35:58;;;;;;;18.83;3.13;;;;;;;;;;6181838;23;20001;-94
2023/03/03 14:38:35;;;;;;;17.95;3.65;;;;;;;;;;6178810;23;20089;-94
2023/03/03 14:41:11;;;;;;;25.95;4.45;;;;;;;;;;6181336;23;20463;-93
2023/03/03 14:43:52;;;;;;;17.40;2.33;;;;;;;;;;6180214;23;20329;-95
2023/03/03 14:46:21;;;;;;;16.17;3.80;;;;;;;;;;6181595;23;20012;-93
2023/03/03 14:49:03;;;;;;;22.95;4.35;;;;;;;;;;6182358;23;20459;-93
2023/03/03 14:51:38;;;;;;;34.58;5.95;;;;;;;;;;6182262;23;20321;-95
2023/03/03 14:54:25;;;;;;;21.50;2.45;;;;;;;;;;6182884;23;20033;-94
2023/03/03 14:57:02;;;;;;;20.75;4.90;;;;;;;;;;6158400;23;20013;-94